Leland, IL (60531)

7:29 AM CDT on August 04, 2015 (GMT -0500)
Farm 34 | | Change Station
CLOSE
Current Station
Personal Weather Station
Location: Earlville, IL
Elevation: 699 ft
Nearby Weather Stations

Elev 699 ft 41.59 °N, 88.85 °W | Updated 4 minutes ago

Clear
Clear
60.9 °F
Feels Like 60.9 °F
N
0.0
Wind Variable Wind from West
Gusts 0.0 mph

Today
High -- | Low -- °F
--% Chance of Precip.
Yesterday
High -- | Low -- °F
Precip. -- in
5:52 AM 8:09 PM
Waning Gibbous, 78% visible
Pressure 29.97 in
Visibility 8.0 miles
Clouds Clear
Dew Point 59 °F
Humidity 92%
Rainfall 0.00 in
Snow Depth Not available.
UV 0 out of 12
Pollen 7.20 out of 12
Air Quality Not available.
Flu Activity Not available.
METAR KARR 041152Z 00000KT 8SM CLR 14/12 A2997 RMK AO2 SLP147 T01390122 10150 20122 53012

More Conditions Fewer Conditions

Pressure 29.97 in
Visibility 8.0 miles
Clouds Clear
Dew Point 59 °F
Humidity 92%
Rainfall 0.00 in
Snow Depth Not available.
UV 0 out of 12
Pollen 7.20 out of 12
Air Quality Not available.
Flu Activity Not available.
METAR KARR 041152Z 00000KT 8SM CLR 14/12 A2997 RMK AO2 SLP147 T01390122 10150 20122 53012

More Conditions Fewer Conditions

10-Day Weather Forecast

×

Almanac

Astronomy

Aug. 04, 2015 Rise Set
Actual Time
Civil Twilight
Nautical Twilight
Astronomical Twilight
Moon
Length of Visible Light
Length of Day
Tomorrow will be .
, % of the Moon is Illuminated

Today's Extremes

State Highs State Lows

Community

WunderPhotos

Upload Photos

1,843,910 photos uploaded!

WunderBlogs® & News

Nearby

Air Quality

  Air Quality AQ Index Pollutant
Not available.

Snow Depth

Station Depth Elevation

Earthquake Activity

City Distance Mag. Time & Date
Minimum magnitude displayed is 2.5.

Coastal Water Temperatures

Place Temperature

Stations

Nearby Weather Stations

Station Location Temp. Windchill Dew Point Humidity Wind Precip. Elev Updated Type